No particular awareness of the weather is required.    There are no Weather-warnings


Meteo18 Weather Cam more information Meteo18 Weather Cam


Thunder radar more information blitzortung!


Rain radar more information rain snow radar


Visit our other weather sites:

Template documentation
and downloads

And another site



Weather Underground History page Text

Daily Summary for October 29, 2017 Units:  English    Metric   Both
« Previous Day
Next Day »
Daily Weekly Monthly Yearly Custom
  High: Low: Average:
Temperature: TemperatureC °F 5.3 °F 9.8 °F
Dew Point: DewpointC °F 4.3 °F 8.9 °F
Humidity: Humidity % 89 % 93 %
Wind Speed: WindSpeedKMH mph 0.0 mph 5.5 mph
Wind Gust: WindSpeedGustKMH mph - -
Wind:- - SSW
Pressure: PressurehPa in 1021.2 in -
Precipitation: 0.5 in    
Historical Graphs
 
 
Tabular Data for October 29, 2017
Time Temperature Dew Point Pressure Wind Wind Speed Wind Gust Humidity Rainfall Rate (Hourly)
TemperatureC °F DewpointC °F PressurehPa in Calm     Humidity % HourlyPrecipMM in
00:02 5.8 °F 4.6 °F 1027.3 in Calm   1.6 mph 92 % 0.0 in
00:12 5.5 °F 4.3 °F 1027.3 in Calm   1.6 mph 92 % 0.0 in
00:17 5.5 °F 4.5 °F 1027.0 in Calm   1.6 mph 93 % 0.0 in
00:22 5.4 °F 4.4 °F 1027.0 in Calm   3.2 mph 93 % 0.0 in
00:27 5.4 °F 4.4 °F 1027.0 in Calm   3.2 mph 93 % 0.0 in
00:32 5.3 °F 4.3 °F 1027.0 in SSE 1.6 mph 1.6 mph 93 % 0.0 in
00:42 5.4 °F 4.5 °F 1026.6 in SW 4.8 mph 4.8 mph 94 % 0.0 in
00:52 7.0 °F 5.9 °F 1026.6 in SW 4.8 mph 8.0 mph 93 % 0.0 in
01:02 7.3 °F 5.8 °F 1026.6 in SSW 1.6 mph 9.7 mph 90 % 0.0 in
01:12 6.8 °F 5.4 °F 1026.6 in SSW 4.8 mph 9.7 mph 91 % 0.0 in
01:17 6.7 °F 5.5 °F 1026.6 in SW 6.4 mph -1607.4 mph 92 % 0.0 in
01:22 6.7 °F 5.5 °F 1026.6 in SW 3.2 mph -1607.4 mph 92 % 0.0 in
01:27 6.8 °F 5.6 °F 1026.6 in WSW 3.2 mph -1607.4 mph 92 % 0.0 in
01:32 6.9 °F 5.7 °F 1026.6 in SW 3.2 mph -1607.4 mph 92 % 0.0 in
01:37 7.1 °F 5.9 °F 1026.6 in SW 1.6 mph -1607.4 mph 92 % 0.0 in
01:42 7.2 °F 6.0 °F 1026.6 in WSW 4.8 mph -1607.4 mph 92 % 0.0 in
01:47 7.3 °F 5.9 °F 1026.3 in SW 4.8 mph -1607.4 mph 91 % 0.0 in
01:52 7.3 °F 5.9 °F 1026.3 in WSW 3.2 mph -1607.4 mph 91 % 0.0 in
01:57 7.4 °F 5.9 °F 1026.3 in Calm   -1607.4 mph 90 % 0.0 in
02:02 7.4 °F 5.9 °F 1026.3 in WSW 3.2 mph -1607.4 mph 90 % 0 in
02:07 7.4 °F 5.9 °F 1026.3 in Calm   -1607.4 mph 90 % 0 in
02:12 7.4 °F 6.0 °F 1026.3 in WSW 3.2 mph -1607.4 mph 91 % 0 in
02:17 7.6 °F 6.1 °F 1026.0 in Calm   -1607.4 mph 90 % 0 in
02:22 7.6 °F 6.2 °F 1026.0 in WNW 1.6 mph -1607.4 mph 91 % 0 in
02:27 7.6 °F 6.2 °F 1026.0 in Calm   -1607.4 mph 91 % 0 in
02:32 7.6 °F 6.1 °F 1026.0 in Calm   -1607.4 mph 90 % 0 in
02:37 7.6 °F 6.2 °F 1026.0 in Calm   -1607.4 mph 91 % 0 in
02:42 7.6 °F 6.2 °F 1026.0 in Calm   -1607.4 mph 91 % 0 in
02:52 7.6 °F 6.2 °F 1026.0 in Calm   -1607.4 mph 91 % 0 in
02:57 7.6 °F 6.2 °F 1026.0 in Calm   -1607.4 mph 91 % 0 in
02:02 7.7 °F 6.3 °F 1026.0 in Calm   -1607.4 mph 91 % 0 in
02:12 7.7 °F 6.3 °F 1026.0 in Calm     91 % 0.0 in
02:17 7.7 °F 6.5 °F 1026.0 in Calm   3.2 mph 92 % 0.0 in
02:22 7.8 °F 6.6 °F 1025.6 in Calm   3.2 mph 92 % 0.0 in
02:27 7.9 °F 6.7 °F 1025.6 in SSW 1.6 mph 8.0 mph 92 % 0.0 in
02:32 7.9 °F 6.5 °F 1025.6 in SW 1.6 mph 8.0 mph 91 % 0.0 in
02:37 7.8 °F 6.6 °F 1025.6 in SW 1.6 mph 8.0 mph 92 % 0.0 in
02:42 7.9 °F 6.7 °F 1025.6 in Calm   8.0 mph 92 % 0.0 in
02:47 7.9 °F 6.7 °F 1025.6 in Calm   8.0 mph 92 % 0.0 in
02:52 7.9 °F 6.7 °F 1025.3 in SSW 1.6 mph 8.0 mph 92 % 0.0 in
02:57 7.8 °F 6.6 °F 1025.3 in SSW 3.2 mph 6.4 mph 92 % 0.0 in
03:02 7.8 °F 6.6 °F 1024.9 in SW 3.2 mph 6.4 mph 92 % 0.0 in
03:12 7.8 °F 6.7 °F 1024.9 in WSW 6.4 mph 8.0 mph 93 % 0.0 in
03:17 7.8 °F 6.7 °F 1024.6 in WSW 8.0 mph 11.3 mph 93 % 0.0 in
03:22 8.0 °F 6.9 °F 1024.6 in WSW 6.4 mph 11.3 mph 93 % 0.0 in
03:27 8.1 °F 7.0 °F 1024.6 in SW 8.0 mph 12.9 mph 93 % 0.0 in
03:32 8.1 °F 7.0 °F 1024.6 in WSW 4.8 mph 12.9 mph 93 % 0.0 in
03:37 8.1 °F 7.0 °F 1024.3 in WSW 11.3 mph 11.3 mph 93 % 0.0 in
03:42 8.1 °F 7.0 °F 1024.3 in WSW 4.8 mph 11.3 mph 93 % 0.0 in
03:52 8.2 °F 7.1 °F 1024.3 in SW 3.2 mph 14.5 mph 93 % 0.0 in
03:57 8.2 °F 7.3 °F 1024.3 in SW 3.2 mph 9.7 mph 94 % 0.0 in
04:02 8.2 °F 7.3 °F 1024.3 in SW 6.4 mph 9.7 mph 94 % 0.0 in
04:22 8.4 °F 7.5 °F 1024.3 in SSW 1.6 mph 8.0 mph 94 % 0.0 in
04:27 7.9 °F 7.0 °F 1024.3 in SW 4.8 mph 4.8 mph 94 % 0.0 in
08:37 9.4 °F 8.8 °F 1023.6 in WSW 6.4 mph -1607.4 mph 96 % 0 in
08:42 9.5 °F 8.9 °F 1023.6 in WSW 6.4 mph -1607.4 mph 96 % 0 in
08:47 9.6 °F 9.0 °F 1023.9 in West 1.6 mph 14.5 mph 96 % 0.0 in
08:52 9.6 °F 9.0 °F 1023.9 in SSW 4.8 mph 14.5 mph 96 % 0.0 in
09:02 9.6 °F 9.0 °F 1023.9 in SW 4.8 mph 12.9 mph 96 % 0.0 in
09:07 9.7 °F 9.1 °F 1023.9 in SW 3.2 mph 11.3 mph 96 % 0.0 in
09:12 9.7 °F 9.1 °F 1023.9 in WSW 3.2 mph 11.3 mph 96 % 0.0 in
09:17 9.7 °F 9.1 °F 1023.9 in Calm   9.7 mph 96 % 0.0 in
09:22 9.8 °F 9.2 °F 1023.9 in WSW 4.8 mph 9.7 mph 96 % 0.0 in
09:32 9.8 °F 9.2 °F 1023.6 in SW 3.2 mph 8.0 mph 96 % 0.0 in
09:37 10.0 °F 9.4 °F 1023.6 in WSW 6.4 mph 11.3 mph 96 % 0.0 in
09:42 10.1 °F 9.5 °F 1023.6 in SW 3.2 mph 11.3 mph 96 % 0.0 in
09:47 10.1 °F 9.5 °F 1023.6 in WSW 6.4 mph 12.9 mph 96 % 0.0 in
09:52 10.1 °F 9.5 °F 1023.6 in SW 8.0 mph 12.9 mph 96 % 0.0 in
09:57 10.1 °F 9.5 °F 1023.6 in WSW 6.4 mph 12.9 mph 96 % 0.0 in
10:02 10.2 °F 9.6 °F 1023.2 in SSW 4.8 mph 12.9 mph 96 % 0.0 in
10:12 10.3 °F 9.7 °F 1023.2 in WSW 9.7 mph 12.9 mph 96 % 0.0 in
10:17 10.4 °F 9.8 °F 1023.2 in WSW 4.8 mph 14.5 mph 96 % 0.0 in
10:22 10.4 °F 9.8 °F 1023.2 in West 8.0 mph 14.5 mph 96 % 0.0 in
10:27 10.5 °F 9.9 °F 1023.2 in WSW 4.8 mph 14.5 mph 96 % 0.0 in
10:32 10.5 °F 9.9 °F 1023.2 in West 12.9 mph 14.5 mph 96 % 0.0 in
10:42 10.6 °F 10.0 °F 1023.2 in WSW 3.2 mph 16.1 mph 96 % 0.0 in
10:47 10.7 °F 10.1 °F 1023.2 in SW 8.0 mph 16.1 mph 96 % 0.0 in
10:52 10.8 °F 10.2 °F 1023.2 in West 4.8 mph 16.1 mph 96 % 0.0 in
10:57 10.8 °F 10.2 °F 1022.9 in West 11.3 mph 12.9 mph 96 % 0.0 in
11:02 10.9 °F 10.3 °F 1022.9 in West 8.0 mph 12.9 mph 96 % 0.0 in
11:12 10.9 °F 10.3 °F 1022.9 in SW 3.2 mph 19.3 mph 96 % 0.0 in
11:17 11.0 °F 10.4 °F 1022.9 in WSW 9.7 mph 19.3 mph 96 % 0.0 in
11:22 10.9 °F 10.3 °F 1022.6 in WSW 6.4 mph 19.3 mph 96 % 0.0 in
11:32 11.0 °F 10.4 °F 1022.6 in West 8.0 mph 17.7 mph 96 % 0.0 in
11:42 11.1 °F 10.5 °F 1022.6 in SSW 6.4 mph 19.3 mph 96 % 0.3 in
11:52 11.2 °F 10.6 °F 1022.6 in West 6.4 mph 17.7 mph 96 % 0.3 in
11:57 11.3 °F 10.7 °F 1022.9 in WNW 4.8 mph 17.7 mph 96 % 0.3 in
12:02 11.3 °F 10.5 °F 1022.9 in West 9.7 mph 17.7 mph 95 % 0.3 in
12:07 11.4 °F 10.6 °F 1022.6 in SW 9.7 mph 17.7 mph 95 % 0.3 in
12:12 11.4 °F 10.6 °F 1022.6 in WSW 6.4 mph 17.7 mph 95 % 0.3 in
12:17 11.6 °F 10.8 °F 1022.9 in WNW 1.6 mph 14.5 mph 95 % 0.3 in
12:22 11.6 °F 10.8 °F 1022.9 in West 9.7 mph 14.5 mph 95 % 0.3 in
12:32 11.6 °F 10.8 °F 1022.6 in WSW 8.0 mph 11.3 mph 95 % 0.0 in
12:37 11.7 °F 10.9 °F 1022.6 in WSW 3.2 mph 11.3 mph 95 % 0.0 in
12:42 11.7 °F 10.9 °F 1022.6 in West 6.4 mph 11.3 mph 95 % 0.0 in
12:52 11.8 °F 11.0 °F 1022.2 in WNW 4.8 mph 11.3 mph 95 % 0.0 in
13:02 11.9 °F 11.1 °F 1022.2 in West 6.4 mph 14.5 mph 95 % 0.0 in
13:12 12.1 °F 11.2 °F 1022.2 in West 9.7 mph 14.5 mph 94 % 0.0 in
13:22 12.3 °F 11.4 °F 1021.9 in WNW 14.5 mph 14.5 mph 94 % 0.0 in
13:32 12.5 °F 11.2 °F 1021.9 in WNW 20.9 mph 20.9 mph 92 % 0.0 in
13:42 12.4 °F 11.1 °F 1021.9 in WNW 12.9 mph 20.9 mph 92 % 0.0 in
13:47 12.4 °F 11.1 °F 1021.9 in West 11.3 mph 20.9 mph 92 % 0.0 in
13:57 12.4 °F 11.3 °F 1021.9 in West 8.0 mph 24.1 mph 93 % 0.0 in
14:07 12.3 °F 11.4 °F 1021.9 in West 9.7 mph 20.9 mph 94 % 0.0 in
14:12 12.2 °F 11.3 °F 1021.9 in WNW 12.9 mph 16.1 mph 94 % 0.0 in
14:17 12.2 °F 11.3 °F 1021.9 in WNW 12.9 mph 16.1 mph 94 % 0.0 in
14:22 12.2 °F 11.3 °F 1021.6 in WNW 6.4 mph 17.7 mph 94 % 0.0 in
14:27 12.3 °F 11.2 °F 1021.6 in WNW 14.5 mph 17.7 mph 93 % 0.0 in
14:32 12.3 °F 11.4 °F 1021.6 in West 1.6 mph 16.1 mph 94 % 0.0 in
14:37 12.3 °F 11.2 °F 1021.6 in West 8.0 mph 16.1 mph 93 % 0.0 in
14:42 12.3 °F 11.4 °F 1021.6 in West 1.6 mph 17.7 mph 94 % 0.0 in
14:52 12.4 °F 11.5 °F 1021.6 in West 9.7 mph 16.1 mph 94 % 0.0 in
14:57 12.4 °F 11.5 °F 1021.6 in West 3.2 mph 16.1 mph 94 % 0.0 in
15:02 12.5 °F 11.4 °F 1021.6 in West 6.4 mph 16.1 mph 93 % 0.0 in
15:07 12.4 °F 11.3 °F 1021.6 in West 3.2 mph 16.1 mph 93 % 0.0 in
15:12 12.5 °F 11.4 °F 1021.6 in WSW 4.8 mph 12.9 mph 93 % 0.0 in
15:17 12.5 °F 11.4 °F 1021.6 in West 4.8 mph 12.9 mph 93 % 0.0 in
15:22 12.5 °F 11.6 °F 1021.6 in West 3.2 mph 14.5 mph 94 % 0.0 in
15:32 12.5 °F 11.6 °F 1021.6 in WNW 9.7 mph 14.5 mph 94 % 0.0 in
15:42 12.7 °F 11.6 °F 1021.6 in West 4.8 mph 16.1 mph 93 % 0.0 in
15:52 12.8 °F 11.7 °F 1021.6 in West 8.0 mph 16.1 mph 93 % 0.0 in
16:02 12.8 °F 11.5 °F 1021.6 in West 12.9 mph 17.7 mph 92 % 0.0 in
16:12 12.8 °F 11.5 °F 1021.6 in WNW 4.8 mph 14.5 mph 92 % 0.0 in
16:17 12.8 °F 11.5 °F 1021.6 in West 4.8 mph 14.5 mph 92 % 0.0 in
16:27 12.8 °F 11.5 °F 1021.6 in WNW 6.4 mph 14.5 mph 92 % 0.0 in
16:32 12.8 °F 11.5 °F 1021.6 in WNW 4.8 mph 14.5 mph 92 % 0.0 in
16:37 12.8 °F 11.7 °F 1021.6 in West 4.8 mph 12.9 mph 93 % 0.0 in
16:42 12.8 °F 11.7 °F 1021.6 in West 9.7 mph 12.9 mph 93 % 0.0 in
16:47 12.8 °F 11.7 °F 1021.6 in SW 4.8 mph 12.9 mph 93 % 0.0 in
16:52 12.8 °F 11.7 °F 1021.6 in West 14.5 mph 14.5 mph 93 % 0.0 in
16:57 12.7 °F 11.6 °F 1021.2 in West 12.9 mph 17.7 mph 93 % 0.0 in
17:02 12.7 °F 11.6 °F 1021.2 in West 4.8 mph 17.7 mph 93 % 0.0 in
17:12 12.6 °F 11.7 °F 1021.2 in West 8.0 mph 17.7 mph 94 % 0.0 in
17:17 12.6 °F 11.7 °F 1021.2 in West 8.0 mph 14.5 mph 94 % 0.0 in
17:22 12.6 °F 11.7 °F 1021.6 in WSW 6.4 mph 14.5 mph 94 % 0.0 in
17:27 12.6 °F 11.7 °F 1021.2 in NW 9.7 mph 14.5 mph 94 % 0.0 in
17:32 12.5 °F 11.6 °F 1021.2 in WNW 6.4 mph 14.5 mph 94 % 0.0 in
17:37 12.5 °F 11.6 °F 1021.6 in West 8.0 mph 14.5 mph 94 % 0.0 in
17:42 12.5 °F 11.6 °F 1021.6 in West 6.4 mph 14.5 mph 94 % 0.0 in
17:47 12.6 °F 11.7 °F 1021.6 in WNW 4.8 mph 12.9 mph 94 % 0.0 in
17:52 12.4 °F 11.1 °F 1021.9 in NNE 12.9 mph 12.9 mph 92 % 0.0 in
18:02 11.6 °F 10.5 °F 1021.9 in NNE 16.1 mph 25.7 mph 93 % 0.5 in
18:12 11.3 °F 10.4 °F 1022.2 in NNW 12.9 mph 25.7 mph 94 % 0.5 in
18:17 11.0 °F 10.1 °F 1022.2 in NNE 22.5 mph 24.1 mph 94 % 0.5 in
18:27 10.6 °F 9.7 °F 1022.6 in NW 12.9 mph 27.4 mph 94 % 0.5 in
18:37 10.4 °F 9.6 °F 1022.6 in ENE 11.3 mph 27.4 mph 95 % 0.5 in
18:42 10.4 °F 9.6 °F 1022.9 in North 9.7 mph 24.1 mph 95 % 0.5 in
18:47 10.3 °F 9.5 °F 1022.9 in NE 8.0 mph 24.1 mph 95 % 0.5 in
19:02 10.2 °F 9.4 °F 1023.2 in NNE 14.5 mph 16.1 mph 95 % 0.0 in
19:12 10.2 °F 9.4 °F 1022.9 in NE 4.8 mph 16.1 mph 95 % 0.0 in
19:22 10.2 °F 9.4 °F 1022.9 in NE 8.0 mph 14.5 mph 95 % 0.0 in
19:27 10.2 °F 9.4 °F 1022.9 in NE 6.4 mph 9.7 mph 95 % 0.0 in
19:32 10.2 °F 9.4 °F 1022.9 in NNE 3.2 mph 9.7 mph 95 % 0.0 in
19:37 10.2 °F 9.4 °F 1023.2 in Calm   9.7 mph 95 % 0.0 in
19:42 10.1 °F 9.3 °F 1023.2 in NE 3.2 mph 9.7 mph 95 % 0.0 in
19:47 10.1 °F 9.3 °F 1023.2 in WNW 4.8 mph 9.7 mph 95 % 0.0 in
19:52 10.1 °F 9.3 °F 1023.2 in Calm   9.7 mph 95 % 0.0 in
19:57 10.1 °F 9.3 °F 1023.2 in North 1.6 mph 9.7 mph 95 % 0.0 in
20:02 10.1 °F 9.3 °F 1023.2 in North 4.8 mph 9.7 mph 95 % 0.0 in
20:12 10.1 °F 9.3 °F 1023.2 in NNE 3.2 mph 6.4 mph 95 % 0.0 in
20:17 10.1 °F 9.3 °F 1023.2 in NNE 4.8 mph 6.4 mph 95 % 0.0 in
20:22 10.1 °F 9.3 °F 1023.2 in NNW 1.6 mph 6.4 mph 95 % 0.0 in
20:27 10.1 °F 9.3 °F 1023.2 in NE 3.2 mph 9.7 mph 95 % 0.0 in
20:32 10.1 °F 9.3 °F 1023.2 in North 4.8 mph 9.7 mph 95 % 0.0 in
20:37 10.1 °F 9.3 °F 1023.2 in Calm   8.0 mph 95 % 0.0 in
20:42 10.0 °F 9.2 °F 1023.2 in North 6.4 mph 8.0 mph 95 % 0.0 in
20:52 10.0 °F 9.2 °F 1023.6 in NNE 3.2 mph 9.7 mph 95 % 0.0 in
20:57 10.0 °F 9.2 °F 1023.6 in NNE 4.8 mph 11.3 mph 95 % 0.0 in
21:02 10.0 °F 9.2 °F 1023.6 in NE 6.4 mph 11.3 mph 95 % 0.0 in
21:12 10.0 °F 9.2 °F 1023.6 in North 4.8 mph 11.3 mph 95 % 0.0 in
21:17 10.0 °F 9.2 °F 1023.6 in North 6.4 mph 11.3 mph 95 % 0.0 in
21:22 10.0 °F 9.2 °F 1023.6 in NNE 3.2 mph 11.3 mph 95 % 0.0 in
21:32 10.0 °F 9.1 °F 1023.9 in NNE 6.4 mph 14.5 mph 94 % 0.0 in
21:37 10.0 °F 9.1 °F 1023.9 in NNE 8.0 mph 16.1 mph 94 % 0.0 in
21:42 10.0 °F 9.1 °F 1023.9 in NE 8.0 mph 16.1 mph 94 % 0.0 in
21:47 10.0 °F 9.1 °F 1023.9 in ENE 3.2 mph 16.1 mph 94 % 0.0 in
21:52 9.9 °F 9.0 °F 1023.9 in NNE 4.8 mph 12.9 mph 94 % 0.0 in
21:57 9.9 °F 9.0 °F 1023.9 in NNE 4.8 mph 14.5 mph 94 % 0.0 in
22:02 9.9 °F 9.0 °F 1023.9 in NNE 8.0 mph 14.5 mph 94 % 0.0 in
22:12 9.7 °F 8.6 °F 1023.9 in NE 3.2 mph 19.3 mph 93 % 0.0 in
22:22 9.6 °F 8.5 °F 1023.9 in NNE 4.8 mph 19.3 mph 93 % 0.0 in
22:32 9.4 °F 8.3 °F 1023.9 in NE 4.8 mph 14.5 mph 93 % 0.0 in
22:37 9.3 °F 8.2 °F 1023.9 in NNE 6.4 mph 17.7 mph 93 % 0.0 in
22:42 9.2 °F 8.1 °F 1023.9 in NE 12.9 mph 17.7 mph 93 % 0.0 in
22:47 9.1 °F 7.9 °F 1023.9 in NE 3.2 mph 14.5 mph 92 % 0.0 in
22:52 8.9 °F 7.7 °F 1023.9 in NNE 6.4 mph 12.9 mph 92 % 0.0 in
23:02 8.7 °F 7.3 °F 1023.9 in NNE 1.6 mph 16.1 mph 91 % 0.0 in
23:12 8.4 °F 7.0 °F 1023.9 in NNW 1.6 mph 16.1 mph 91 % 0.0 in
23:17 8.4 °F 7.0 °F 1024.3 in NNW 1.6 mph 12.9 mph 91 % 0.0 in
23:22 8.3 °F 6.9 °F 1024.3 in NNW 1.6 mph 12.9 mph 91 % 0.0 in
23:27 8.2 °F 6.7 °F 1024.3 in NNW 4.8 mph 14.5 mph 90 % 0.0 in
23:32 8.2 °F 6.7 °F 1024.3 in NNW 6.4 mph 14.5 mph 90 % 0.0 in
23:37 8.2 °F 6.5 °F 1024.3 in NNE 3.2 mph 14.5 mph 89 % 0.0 in
23:42 8.2 °F 6.5 °F 1024.3 in NNW 12.9 mph 14.5 mph 89 % 0.0 in
23:52 8.1 °F 6.4 °F 1024.3 in North 6.4 mph 16.1 mph 89 % 0.0 in
23:57 7.9 °F 6.2 °F 1024.3 in NNW 11.3 mph 16.1 mph 89 % 0.0 in
Meteo18
Compliments of Weather Underground - 4 mb

Script developed by  Jim McMurry - jmcmurry@mwt.net Adapted for the template by  Wim van der Kuil - Leuven-Template.eu

You find our weather info also at:

European Weather Network

Weather Underground

Equipment we use:

Weather-station
Davis Vue

Weather-program
Meteobridge

Weather-server
Raspberry PI 2 B+

Provider
1 and 1

Davis Vue

Meteobridge

Raspberry PI 2 B+

1 and 1